EZY51MN EGPH-EGSS
Flight info
| Callsign | EZY51MN |
|---|---|
| Flight time | 1h 1m |
| Altitude | 35000 |
| Route | GOSAM P600 FENIK L612 NAVSO DCT AKOMU DCT VAMEB UL612 LISTO |
| Aircraft | A320/M-SDE3FGHIRWY/LB1 |
Departure
| Time | 2026-04-24 13:11 |
|---|---|
| Airport | Edinburgh Airport (EGPH) |
Arrival
| Time | 2026-04-24 14:12 |
|---|---|
| Airport | London Stansted Airport (EGSS) |
| Time | Latitude | Longitude | Altitude | Speed | Heading |
|---|---|---|---|---|---|
| 2026-04-24 12:24 | 55.94839 | -3.35803 | 147 ft | 0 kts | 209° |
| 2026-04-24 12:55 | 55.94843 | -3.35799 | 147 ft | 2 kts | 209° |
| 2026-04-24 12:55 | 55.94858 | -3.35784 | 147 ft | 3 kts | 209° |
| 2026-04-24 12:55 | 55.94871 | -3.35771 | 147 ft | 3 kts | 209° |
| 2026-04-24 12:56 | 55.94886 | -3.35750 | 147 ft | 3 kts | 228° |
| 2026-04-24 12:56 | 55.94892 | -3.35728 | 147 ft | 7 kts | 270° |
| 2026-04-24 12:56 | 55.94882 | -3.35690 | 147 ft | 0 kts | 299° |
| 2026-04-24 13:00 | 55.94886 | -3.35702 | 147 ft | 2 kts | 299° |
| 2026-04-24 13:00 | 55.94899 | -3.35743 | 147 ft | 5 kts | 298° |
| 2026-04-24 13:00 | 55.94920 | -3.35812 | 147 ft | 8 kts | 298° |
| 2026-04-24 13:00 | 55.94961 | -3.35879 | 147 ft | 8 kts | 6° |
| 2026-04-24 13:01 | 55.95015 | -3.35835 | 147 ft | 9 kts | 14° |
| 2026-04-24 13:01 | 55.95060 | -3.35896 | 147 ft | 10 kts | 298° |
| 2026-04-24 13:01 | 55.95096 | -3.36013 | 147 ft | 12 kts | 298° |
| 2026-04-24 13:01 | 55.95125 | -3.36158 | 147 ft | 13 kts | 288° |
| 2026-04-24 13:02 | 55.95130 | -3.36299 | 147 ft | 11 kts | 238° |
| 2026-04-24 13:02 | 55.95086 | -3.36426 | 147 ft | 13 kts | 238° |
| 2026-04-24 13:02 | 55.95038 | -3.36569 | 147 ft | 14 kts | 239° |
| 2026-04-24 13:02 | 55.94984 | -3.36730 | 147 ft | 16 kts | 239° |
| 2026-04-24 13:03 | 55.94924 | -3.36907 | 147 ft | 17 kts | 239° |
| 2026-04-24 13:03 | 55.94861 | -3.37097 | 147 ft | 19 kts | 239° |
| 2026-04-24 13:03 | 55.94793 | -3.37299 | 147 ft | 20 kts | 239° |
| 2026-04-24 13:03 | 55.94720 | -3.37514 | 147 ft | 20 kts | 239° |
| 2026-04-24 13:04 | 55.94652 | -3.37716 | 147 ft | 19 kts | 239° |
| 2026-04-24 13:04 | 55.94583 | -3.37920 | 147 ft | 20 kts | 239° |
| 2026-04-24 13:04 | 55.94513 | -3.38129 | 147 ft | 18 kts | 239° |
| 2026-04-24 13:04 | 55.94459 | -3.38289 | 147 ft | 13 kts | 239° |
| 2026-04-24 13:05 | 55.94410 | -3.38435 | 147 ft | 14 kts | 239° |
| 2026-04-24 13:05 | 55.94359 | -3.38585 | 147 ft | 14 kts | 239° |
| 2026-04-24 13:05 | 55.94316 | -3.38713 | 147 ft | 12 kts | 239° |
| 2026-04-24 13:05 | 55.94284 | -3.38812 | 147 ft | 7 kts | 253° |
| 2026-04-24 13:06 | 55.94295 | -3.38870 | 147 ft | 4 kts | 325° |
| 2026-04-24 13:06 | 55.94314 | -3.38889 | 147 ft | 4 kts | 329° |
| 2026-04-24 13:06 | 55.94326 | -3.38903 | 147 ft | 0 kts | 329° |
| 2026-04-24 13:09 | 55.94328 | -3.38904 | 147 ft | 2 kts | 329° |
| 2026-04-24 13:09 | 55.94372 | -3.38952 | 147 ft | 13 kts | 329° |
| 2026-04-24 13:10 | 55.94431 | -3.38943 | 147 ft | 5 kts | 52° |
| 2026-04-24 13:10 | 55.94438 | -3.38924 | 147 ft | 0 kts | 59° |
| 2026-04-24 13:10 | 55.94457 | -3.38868 | 147 ft | 30 kts | 59° |
| 2026-04-24 13:10 | 55.94717 | -3.38096 | 147 ft | 109 kts | 59° |
| 2026-04-24 13:11 | 55.95188 | -3.36699 | 312 ft | 141 kts | 59° |
| 2026-04-24 13:11 | 55.95689 | -3.35210 | 918 ft | 141 kts | 59° |
| 2026-04-24 13:11 | 55.96223 | -3.33699 | 1472 ft | 147 kts | 52° |
| 2026-04-24 13:11 | 55.96989 | -3.32468 | 2063 ft | 150 kts | 40° |
| 2026-04-24 13:12 | 55.97823 | -3.31260 | 2628 ft | 160 kts | 39° |
| 2026-04-24 13:12 | 55.98725 | -3.29966 | 3157 ft | 176 kts | 38° |
| 2026-04-24 13:12 | 55.99909 | -3.29127 | 3674 ft | 193 kts | 9° |
| 2026-04-24 13:12 | 56.01250 | -3.29601 | 4248 ft | 205 kts | 336° |
| 2026-04-24 13:13 | 56.02315 | -3.31316 | 4821 ft | 214 kts | 305° |
| 2026-04-24 13:13 | 56.02779 | -3.33865 | 5453 ft | 221 kts | 275° |
| 2026-04-24 13:13 | 56.02670 | -3.36679 | 6092 ft | 234 kts | 261° |
| 2026-04-24 13:13 | 56.02468 | -3.38615 | 6512 ft | 245 kts | 258° |
| 2026-04-24 13:14 | 56.01945 | -3.42705 | 7566 ft | 263 kts | 257° |
| 2026-04-24 13:14 | 56.01653 | -3.44853 | 8107 ft | 271 kts | 256° |
| 2026-04-24 13:14 | 56.01184 | -3.48207 | 8922 ft | 283 kts | 256° |
| 2026-04-24 13:14 | 56.00690 | -3.51695 | 9736 ft | 294 kts | 256° |
| 2026-04-24 13:15 | 56.00180 | -3.55257 | 10514 ft | 304 kts | 256° |
| 2026-04-24 13:15 | 55.99643 | -3.58990 | 11198 ft | 315 kts | 256° |
| 2026-04-24 13:15 | 55.99089 | -3.62816 | 11877 ft | 325 kts | 256° |
| 2026-04-24 13:15 | 55.98512 | -3.66780 | 12562 ft | 332 kts | 256° |
| 2026-04-24 13:16 | 55.97923 | -3.70836 | 13244 ft | 339 kts | 256° |
| 2026-04-24 13:16 | 55.97212 | -3.74835 | 13907 ft | 344 kts | 246° |
| 2026-04-24 13:16 | 55.95842 | -3.78349 | 14590 ft | 347 kts | 227° |
| 2026-04-24 13:16 | 55.93868 | -3.80877 | 15279 ft | 350 kts | 207° |
| 2026-04-24 13:17 | 55.91578 | -3.82190 | 15970 ft | 351 kts | 192° |
| 2026-04-24 13:17 | 55.89153 | -3.82774 | 16665 ft | 352 kts | 185° |
| 2026-04-24 13:17 | 55.86696 | -3.83016 | 17354 ft | 355 kts | 182° |
| 2026-04-24 13:17 | 55.84240 | -3.83101 | 18033 ft | 358 kts | 181° |
| 2026-04-24 13:18 | 55.81730 | -3.83089 | 18716 ft | 359 kts | 180° |
| 2026-04-24 13:18 | 55.79218 | -3.83027 | 19394 ft | 360 kts | 179° |
| 2026-04-24 13:18 | 55.76734 | -3.82943 | 20061 ft | 360 kts | 179° |
| 2026-04-24 13:18 | 55.74223 | -3.82851 | 20717 ft | 362 kts | 179° |
| 2026-04-24 13:19 | 55.71681 | -3.82755 | 21329 ft | 370 kts | 179° |
| 2026-04-24 13:19 | 55.69070 | -3.82655 | 21938 ft | 378 kts | 179° |
| 2026-04-24 13:19 | 55.66432 | -3.82556 | 22538 ft | 385 kts | 179° |
| 2026-04-24 13:19 | 55.63719 | -3.82457 | 23145 ft | 392 kts | 179° |
| 2026-04-24 13:20 | 55.60961 | -3.82358 | 23751 ft | 397 kts | 179° |
| 2026-04-24 13:20 | 55.58199 | -3.82258 | 24350 ft | 402 kts | 179° |
| 2026-04-24 13:20 | 55.55379 | -3.82160 | 24907 ft | 406 kts | 179° |
| 2026-04-24 13:20 | 55.52557 | -3.82068 | 25416 ft | 411 kts | 179° |
| 2026-04-24 13:21 | 55.49668 | -3.81980 | 25922 ft | 415 kts | 179° |
| 2026-04-24 13:21 | 55.46765 | -3.81899 | 26494 ft | 416 kts | 179° |
| 2026-04-24 13:21 | 55.43865 | -3.81825 | 27109 ft | 416 kts | 179° |
| 2026-04-24 13:21 | 55.41001 | -3.81759 | 27726 ft | 415 kts | 179° |
| 2026-04-24 13:22 | 55.38110 | -3.81700 | 28351 ft | 413 kts | 179° |
| 2026-04-24 13:22 | 55.35234 | -3.81648 | 28927 ft | 413 kts | 179° |
| 2026-04-24 13:22 | 55.32351 | -3.81604 | 29385 ft | 415 kts | 179° |
| 2026-04-24 13:22 | 55.29647 | -3.81568 | 29789 ft | 417 kts | 179° |
| 2026-04-24 13:23 | 55.26775 | -3.81353 | 30223 ft | 417 kts | 172° |
| 2026-04-24 13:23 | 55.23946 | -3.80232 | 30708 ft | 416 kts | 162° |
| 2026-04-24 13:23 | 55.21211 | -3.78551 | 31206 ft | 414 kts | 158° |
| 2026-04-24 13:23 | 55.18549 | -3.76617 | 31694 ft | 413 kts | 155° |
| 2026-04-24 13:24 | 55.15919 | -3.74559 | 32048 ft | 415 kts | 154° |
| 2026-04-24 13:24 | 55.13324 | -3.72455 | 32315 ft | 419 kts | 154° |
| 2026-04-24 13:24 | 55.10665 | -3.70260 | 32571 ft | 422 kts | 153° |
| 2026-04-24 13:24 | 55.07994 | -3.68037 | 32824 ft | 425 kts | 153° |
| 2026-04-24 13:25 | 55.05317 | -3.65799 | 33075 ft | 428 kts | 153° |
| 2026-04-24 13:25 | 55.02657 | -3.63571 | 33324 ft | 430 kts | 153° |
| 2026-04-24 13:25 | 54.99952 | -3.61304 | 33575 ft | 431 kts | 153° |
| 2026-04-24 13:25 | 54.97229 | -3.59023 | 33826 ft | 433 kts | 153° |
| 2026-04-24 13:26 | 54.94505 | -3.56743 | 34077 ft | 434 kts | 153° |
| 2026-04-24 13:26 | 54.91812 | -3.54492 | 34325 ft | 435 kts | 153° |
| 2026-04-24 13:26 | 54.89081 | -3.52206 | 34575 ft | 435 kts | 153° |
| 2026-04-24 13:26 | 54.86348 | -3.49916 | 34826 ft | 436 kts | 153° |
| 2026-04-24 13:27 | 54.83609 | -3.47644 | 35073 ft | 436 kts | 154° |
| 2026-04-24 13:27 | 54.80840 | -3.45378 | 35229 ft | 438 kts | 154° |
| 2026-04-24 13:27 | 54.75347 | -3.40926 | 35355 ft | 447 kts | 154° |
| 2026-04-24 13:28 | 54.69650 | -3.36329 | 35350 ft | 456 kts | 154° |
| 2026-04-24 13:28 | 54.63842 | -3.31656 | 35348 ft | 463 kts | 154° |
| 2026-04-24 13:29 | 54.58003 | -3.26969 | 35348 ft | 465 kts | 154° |
| 2026-04-24 13:29 | 54.52158 | -3.22229 | 35347 ft | 462 kts | 154° |
| 2026-04-24 13:30 | 54.46385 | -3.17449 | 35347 ft | 461 kts | 153° |
| 2026-04-24 13:30 | 54.40630 | -3.12553 | 35347 ft | 460 kts | 153° |
| 2026-04-24 13:31 | 54.34894 | -3.07695 | 35347 ft | 460 kts | 153° |
| 2026-04-24 13:31 | 54.29143 | -3.02925 | 35347 ft | 460 kts | 153° |
| 2026-04-24 13:32 | 54.23358 | -2.98170 | 35347 ft | 460 kts | 153° |
| 2026-04-24 13:32 | 54.17671 | -2.93684 | 35347 ft | 461 kts | 155° |
| 2026-04-24 13:33 | 54.11825 | -2.89259 | 35347 ft | 461 kts | 155° |
| 2026-04-24 13:33 | 54.05946 | -2.84881 | 35347 ft | 461 kts | 156° |
| 2026-04-24 13:34 | 54.00051 | -2.80554 | 35347 ft | 461 kts | 156° |
| 2026-04-24 13:34 | 53.94150 | -2.76317 | 35347 ft | 461 kts | 157° |
| 2026-04-24 13:35 | 53.88255 | -2.72088 | 35347 ft | 461 kts | 156° |
| 2026-04-24 13:35 | 53.82352 | -2.67863 | 35347 ft | 461 kts | 157° |
| 2026-04-24 13:36 | 53.76418 | -2.63623 | 35347 ft | 461 kts | 157° |
| 2026-04-24 13:36 | 53.70507 | -2.59408 | 35347 ft | 461 kts | 157° |
| 2026-04-24 13:37 | 53.64651 | -2.55241 | 35347 ft | 461 kts | 157° |
| 2026-04-24 13:37 | 53.58764 | -2.51059 | 35347 ft | 461 kts | 157° |
| 2026-04-24 13:38 | 53.52854 | -2.46866 | 35347 ft | 461 kts | 157° |
| 2026-04-24 13:38 | 53.46972 | -2.42695 | 35347 ft | 461 kts | 157° |
| 2026-04-24 13:39 | 53.41054 | -2.38497 | 35347 ft | 461 kts | 157° |
| 2026-04-24 13:39 | 53.35155 | -2.34352 | 35347 ft | 461 kts | 158° |
| 2026-04-24 13:40 | 53.29199 | -2.30264 | 35347 ft | 461 kts | 158° |
| 2026-04-24 13:40 | 53.23286 | -2.26223 | 35347 ft | 460 kts | 158° |
| 2026-04-24 13:41 | 53.17461 | -2.21780 | 35368 ft | 460 kts | 152° |
| 2026-04-24 13:41 | 53.12029 | -2.16186 | 35389 ft | 461 kts | 147° |
| 2026-04-24 13:42 | 53.06695 | -2.10133 | 35347 ft | 462 kts | 146° |
| 2026-04-24 13:42 | 53.01468 | -2.04028 | 35338 ft | 462 kts | 145° |
| 2026-04-24 13:43 | 52.96210 | -1.97817 | 35337 ft | 462 kts | 145° |
| 2026-04-24 13:43 | 52.91006 | -1.91615 | 35337 ft | 462 kts | 145° |
| 2026-04-24 13:44 | 52.85784 | -1.85346 | 35337 ft | 463 kts | 145° |
| 2026-04-24 13:44 | 52.80760 | -1.79311 | 35285 ft | 456 kts | 146° |
| 2026-04-24 13:45 | 52.75525 | -1.73704 | 35245 ft | 444 kts | 152° |
| 2026-04-24 13:45 | 52.70148 | -1.68731 | 35012 ft | 443 kts | 154° |
| 2026-04-24 13:46 | 52.67572 | -1.66429 | 34484 ft | 446 kts | 154° |
| 2026-04-24 13:46 | 52.64836 | -1.64015 | 33890 ft | 444 kts | 154° |
| 2026-04-24 13:46 | 52.62101 | -1.61646 | 33288 ft | 440 kts | 155° |
| 2026-04-24 13:46 | 52.59430 | -1.59351 | 32694 ft | 435 kts | 155° |
| 2026-04-24 13:47 | 52.56747 | -1.57045 | 32090 ft | 431 kts | 155° |
| 2026-04-24 13:47 | 52.54096 | -1.54749 | 31484 ft | 426 kts | 155° |
| 2026-04-24 13:47 | 52.51524 | -1.52474 | 30887 ft | 422 kts | 155° |
| 2026-04-24 13:47 | 52.48938 | -1.50188 | 30278 ft | 418 kts | 155° |
| 2026-04-24 13:48 | 52.46387 | -1.47933 | 29681 ft | 414 kts | 155° |
| 2026-04-24 13:48 | 52.43858 | -1.45702 | 29077 ft | 409 kts | 155° |
| 2026-04-24 13:48 | 52.41390 | -1.43536 | 28491 ft | 404 kts | 155° |
| 2026-04-24 13:48 | 52.38918 | -1.41381 | 27899 ft | 399 kts | 155° |
| 2026-04-24 13:49 | 52.36477 | -1.39271 | 27306 ft | 394 kts | 155° |
| 2026-04-24 13:49 | 52.34160 | -1.37277 | 26724 ft | 389 kts | 154° |
| 2026-04-24 13:49 | 52.31803 | -1.35165 | 26128 ft | 383 kts | 153° |
| 2026-04-24 13:49 | 52.29491 | -1.33041 | 25530 ft | 378 kts | 152° |
| 2026-04-24 13:50 | 52.27248 | -1.30935 | 24929 ft | 372 kts | 152° |
| 2026-04-24 13:50 | 52.25014 | -1.28822 | 24324 ft | 366 kts | 152° |
| 2026-04-24 13:50 | 52.22848 | -1.26779 | 23728 ft | 360 kts | 151° |
| 2026-04-24 13:50 | 52.20681 | -1.24748 | 23127 ft | 355 kts | 151° |
| 2026-04-24 13:51 | 52.18566 | -1.22779 | 22531 ft | 350 kts | 151° |
| 2026-04-24 13:51 | 52.16459 | -1.20832 | 21929 ft | 345 kts | 151° |
| 2026-04-24 13:51 | 52.14377 | -1.18898 | 21325 ft | 340 kts | 151° |
| 2026-04-24 13:51 | 52.12336 | -1.16982 | 20723 ft | 336 kts | 150° |
| 2026-04-24 13:52 | 52.10346 | -1.15114 | 20129 ft | 332 kts | 150° |
| 2026-04-24 13:52 | 52.08363 | -1.13258 | 19530 ft | 328 kts | 150° |
| 2026-04-24 13:52 | 52.06400 | -1.11432 | 18930 ft | 324 kts | 150° |
| 2026-04-24 13:52 | 52.04445 | -1.09626 | 18327 ft | 320 kts | 150° |
| 2026-04-24 13:53 | 52.02632 | -1.07581 | 17721 ft | 316 kts | 137° |
| 2026-04-24 13:53 | 52.01381 | -1.04672 | 17129 ft | 315 kts | 116° |
| 2026-04-24 13:53 | 52.00759 | -1.01263 | 16544 ft | 315 kts | 103° |
| 2026-04-24 13:53 | 52.00474 | -0.97751 | 15953 ft | 313 kts | 97° |
| 2026-04-24 13:54 | 52.00332 | -0.94281 | 15450 ft | 307 kts | 94° |
| 2026-04-24 13:54 | 52.00251 | -0.90874 | 15348 ft | 297 kts | 93° |
| 2026-04-24 13:54 | 52.00191 | -0.87529 | 15342 ft | 295 kts | 93° |
| 2026-04-24 13:54 | 52.00140 | -0.84224 | 15325 ft | 297 kts | 93° |
| 2026-04-24 13:55 | 52.00094 | -0.80923 | 15123 ft | 302 kts | 92° |
| 2026-04-24 13:55 | 52.00062 | -0.77457 | 14861 ft | 291 kts | 92° |
| 2026-04-24 13:55 | 52.00035 | -0.74272 | 14608 ft | 279 kts | 92° |
| 2026-04-24 13:55 | 51.99997 | -0.71281 | 14364 ft | 273 kts | 92° |
| 2026-04-24 13:56 | 51.99956 | -0.68216 | 14111 ft | 269 kts | 93° |
| 2026-04-24 13:56 | 51.99923 | -0.65227 | 13862 ft | 266 kts | 93° |
| 2026-04-24 13:56 | 51.99892 | -0.62232 | 13611 ft | 264 kts | 93° |
| 2026-04-24 13:56 | 51.99862 | -0.59250 | 13359 ft | 263 kts | 93° |
| 2026-04-24 13:57 | 51.99832 | -0.56288 | 13108 ft | 261 kts | 93° |
| 2026-04-24 13:57 | 51.99795 | -0.53345 | 12857 ft | 260 kts | 94° |
| 2026-04-24 13:57 | 51.99745 | -0.50424 | 12607 ft | 258 kts | 94° |
| 2026-04-24 13:57 | 51.99690 | -0.47537 | 12358 ft | 257 kts | 94° |
| 2026-04-24 13:58 | 51.99638 | -0.44638 | 12106 ft | 256 kts | 94° |
| 2026-04-24 13:58 | 51.99602 | -0.41784 | 11858 ft | 255 kts | 93° |
| 2026-04-24 13:58 | 51.99571 | -0.38903 | 11607 ft | 254 kts | 93° |
| 2026-04-24 13:58 | 51.99542 | -0.36032 | 11354 ft | 253 kts | 93° |
| 2026-04-24 13:59 | 51.99522 | -0.34223 | 11195 ft | 252 kts | 93° |
| 2026-04-24 13:59 | 51.99479 | -0.30368 | 10854 ft | 251 kts | 93° |
| 2026-04-24 13:59 | 51.99443 | -0.27562 | 10565 ft | 251 kts | 93° |
| 2026-04-24 13:59 | 51.99404 | -0.24740 | 10316 ft | 249 kts | 93° |
| 2026-04-24 14:00 | 51.99362 | -0.21928 | 10066 ft | 248 kts | 93° |
| 2026-04-24 14:00 | 51.99319 | -0.19137 | 9807 ft | 246 kts | 93° |
| 2026-04-24 14:00 | 51.99277 | -0.16396 | 9562 ft | 245 kts | 93° |
| 2026-04-24 14:00 | 51.99229 | -0.13606 | 9196 ft | 248 kts | 93° |
| 2026-04-24 14:01 | 51.99196 | -0.11758 | 8947 ft | 247 kts | 93° |
| 2026-04-24 14:01 | 51.99147 | -0.08081 | 8450 ft | 244 kts | 92° |
| 2026-04-24 14:01 | 51.99097 | -0.05342 | 8068 ft | 241 kts | 96° |
| 2026-04-24 14:01 | 51.98548 | -0.02807 | 7674 ft | 238 kts | 122° |
| 2026-04-24 14:02 | 51.97810 | -0.01502 | 7426 ft | 237 kts | 139° |
| 2026-04-24 14:02 | 51.96324 | -0.00398 | 7067 ft | 236 kts | 164° |
| 2026-04-24 14:02 | 51.94154 | -0.00212 | 6585 ft | 236 kts | 181° |
| 2026-04-24 14:02 | 51.93064 | -0.00421 | 6340 ft | 234 kts | 185° |
| 2026-04-24 14:03 | 51.91489 | -0.00847 | 6080 ft | 225 kts | 187° |
| 2026-04-24 14:03 | 51.89984 | -0.01307 | 5849 ft | 213 kts | 188° |
| 2026-04-24 14:03 | 51.88578 | -0.01757 | 5618 ft | 202 kts | 188° |
| 2026-04-24 14:03 | 51.87216 | -0.02203 | 5361 ft | 196 kts | 188° |
| 2026-04-24 14:04 | 51.85884 | -0.02644 | 5108 ft | 194 kts | 188° |
| 2026-04-24 14:04 | 51.84578 | -0.03081 | 4887 ft | 190 kts | 188° |
| 2026-04-24 14:04 | 51.83288 | -0.03522 | 4701 ft | 188 kts | 188° |
| 2026-04-24 14:04 | 51.82021 | -0.03959 | 4535 ft | 189 kts | 188° |
| 2026-04-24 14:05 | 51.80725 | -0.04406 | 4358 ft | 189 kts | 188° |
| 2026-04-24 14:05 | 51.79492 | -0.04833 | 4188 ft | 189 kts | 188° |
| 2026-04-24 14:05 | 51.78205 | -0.05280 | 4008 ft | 188 kts | 188° |
| 2026-04-24 14:05 | 51.76934 | -0.05721 | 3842 ft | 188 kts | 188° |
| 2026-04-24 14:06 | 51.75649 | -0.06166 | 3664 ft | 188 kts | 188° |
| 2026-04-24 14:06 | 51.74362 | -0.06186 | 3450 ft | 182 kts | 163° |
| 2026-04-24 14:06 | 51.73349 | -0.05088 | 3276 ft | 179 kts | 129° |
| 2026-04-24 14:06 | 51.72924 | -0.03209 | 3122 ft | 182 kts | 96° |
| 2026-04-24 14:07 | 51.73148 | -0.01216 | 3029 ft | 184 kts | 74° |
| 2026-04-24 14:07 | 51.73738 | 0.00629 | 2933 ft | 184 kts | 60° |
| 2026-04-24 14:07 | 51.74510 | 0.02264 | 2835 ft | 183 kts | 51° |
| 2026-04-24 14:07 | 51.75365 | 0.03743 | 2738 ft | 181 kts | 47° |
| 2026-04-24 14:08 | 51.76275 | 0.05168 | 2625 ft | 181 kts | 45° |
| 2026-04-24 14:08 | 51.77183 | 0.06534 | 2495 ft | 180 kts | 44° |
| 2026-04-24 14:08 | 51.78114 | 0.07919 | 2297 ft | 182 kts | 44° |
| 2026-04-24 14:08 | 51.79052 | 0.09316 | 2054 ft | 183 kts | 44° |
| 2026-04-24 14:09 | 51.79979 | 0.10700 | 1868 ft | 177 kts | 44° |
| 2026-04-24 14:09 | 51.80852 | 0.12005 | 1728 ft | 167 kts | 44° |
| 2026-04-24 14:09 | 51.81659 | 0.13218 | 1574 ft | 148 kts | 43° |
| 2026-04-24 14:09 | 51.82358 | 0.14266 | 1482 ft | 128 kts | 43° |
| 2026-04-24 14:10 | 51.83011 | 0.15246 | 1387 ft | 129 kts | 43° |
| 2026-04-24 14:10 | 51.83671 | 0.16236 | 1304 ft | 132 kts | 43° |
| 2026-04-24 14:10 | 51.84349 | 0.17255 | 1185 ft | 133 kts | 43° |
| 2026-04-24 14:10 | 51.85030 | 0.18275 | 1005 ft | 133 kts | 43° |
| 2026-04-24 14:11 | 51.85701 | 0.19284 | 847 ft | 129 kts | 43° |
| 2026-04-24 14:11 | 51.86348 | 0.20256 | 715 ft | 127 kts | 43° |
| 2026-04-24 14:11 | 51.87611 | 0.22157 | 419 ft | 121 kts | 43° |
| 2026-04-24 14:12 | 51.88203 | 0.23046 | 360 ft | 107 kts | 43° |
| 2026-04-24 14:12 | 51.88576 | 0.23610 | 360 ft | 49 kts | 43° |
| 2026-04-24 14:12 | 51.88799 | 0.23966 | 360 ft | 38 kts | 59° |
| 2026-04-24 14:12 | 51.88864 | 0.24223 | 360 ft | 10 kts | 73° |
| 2026-04-24 14:13 | 51.88877 | 0.24294 | 360 ft | 4 kts | 73° |
| 2026-04-24 14:13 | 51.88884 | 0.24330 | 360 ft | 4 kts | 73° |
| 2026-04-24 14:13 | 51.88893 | 0.24378 | 360 ft | 5 kts | 73° |
| 2026-04-24 14:13 | 51.88905 | 0.24439 | 360 ft | 6 kts | 73° |
| 2026-04-24 14:14 | 51.88893 | 0.24498 | 360 ft | 6 kts | 132° |
| 2026-04-24 14:14 | 51.88889 | 0.24564 | 360 ft | 6 kts | 57° |
| 2026-04-24 14:14 | 51.88964 | 0.24678 | 360 ft | 9 kts | 43° |
| 2026-04-24 14:15 | 51.89015 | 0.24761 | 360 ft | 11 kts | 63° |
| 2026-04-24 14:15 | 51.88988 | 0.24862 | 360 ft | 11 kts | 133° |
| 2026-04-24 14:15 | 51.88965 | 0.24974 | 360 ft | 11 kts | 51° |
| 2026-04-24 14:15 | 51.89024 | 0.25064 | 360 ft | 13 kts | 43° |
| 2026-04-24 14:16 | 51.89093 | 0.25169 | 360 ft | 14 kts | 43° |
| 2026-04-24 14:16 | 51.89150 | 0.25281 | 360 ft | 8 kts | 98° |
| 2026-04-24 14:16 | 51.89119 | 0.25343 | 360 ft | 8 kts | 133° |
| 2026-04-24 14:17 | 51.89033 | 0.25440 | 360 ft | 5 kts | 223° |
| 2026-04-24 14:17 | 51.89000 | 0.25390 | 360 ft | 7 kts | 223° |
| 2026-04-24 14:17 | 51.88988 | 0.25372 | 360 ft | 0 kts | 223° |